sensor_id;sensor_type;location;lat;lon;timestamp;P1;durP1;ratioP1;P2;durP2;ratioP2
51296;SDS011;37380;45.186;9.792;2023-11-22T00:00:31;51.97;;;41.75;;
51296;SDS011;37380;45.186;9.792;2023-11-22T00:02:59;46.05;;;37.20;;
51296;SDS011;37380;45.186;9.792;2023-11-22T00:05:26;58.25;;;40.38;;
51296;SDS011;37380;45.186;9.792;2023-11-22T00:07:53;56.72;;;40.28;;
51296;SDS011;37380;45.186;9.792;2023-11-22T00:10:20;53.35;;;39.30;;
51296;SDS011;37380;45.186;9.792;2023-11-22T00:12:47;45.88;;;36.67;;
51296;SDS011;37380;45.186;9.792;2023-11-22T00:15:15;52.05;;;36.35;;
51296;SDS011;37380;45.186;9.792;2023-11-22T00:17:45;47.67;;;35.10;;
51296;SDS011;37380;45.186;9.792;2023-11-22T00:20:12;46.42;;;35.22;;
51296;SDS011;37380;45.186;9.792;2023-11-22T00:22:39;45.58;;;34.65;;
51296;SDS011;37380;45.186;9.792;2023-11-22T00:25:07;51.78;;;38.40;;
51296;SDS011;37380;45.186;9.792;2023-11-22T00:27:35;52.70;;;40.38;;
51296;SDS011;37380;45.186;9.792;2023-11-22T00:30:04;52.03;;;36.90;;
51296;SDS011;37380;45.186;9.792;2023-11-22T00:32:32;63.38;;;41.05;;
51296;SDS011;37380;45.186;9.792;2023-11-22T00:34:59;45.13;;;37.00;;
51296;SDS011;37380;45.186;9.792;2023-11-22T00:37:26;43.75;;;31.42;;
51296;SDS011;37380;45.186;9.792;2023-11-22T00:39:54;43.15;;;36.95;;
51296;SDS011;37380;45.186;9.792;2023-11-22T00:42:21;51.30;;;37.50;;
51296;SDS011;37380;45.186;9.792;2023-11-22T00:44:49;47.47;;;36.08;;
51296;SDS011;37380;45.186;9.792;2023-11-22T00:47:17;46.17;;;37.92;;
51296;SDS011;37380;45.186;9.792;2023-11-22T00:49:44;51.42;;;36.15;;
51296;SDS011;37380;45.186;9.792;2023-11-22T00:52:12;53.25;;;36.92;;
51296;SDS011;37380;45.186;9.792;2023-11-22T00:54:39;42.20;;;36.05;;
51296;SDS011;37380;45.186;9.792;2023-11-22T00:57:07;48.30;;;34.50;;
51296;SDS011;37380;45.186;9.792;2023-11-22T00:59:34;40.13;;;29.48;;
51296;SDS011;37380;45.186;9.792;2023-11-22T01:02:02;43.42;;;32.22;;
51296;SDS011;37380;45.186;9.792;2023-11-22T01:04:29;45.45;;;32.28;;
51296;SDS011;37380;45.186;9.792;2023-11-22T01:07:01;43.50;;;34.15;;
51296;SDS011;37380;45.186;9.792;2023-11-22T01:09:28;44.75;;;32.38;;
51296;SDS011;37380;45.186;9.792;2023-11-22T01:11:56;45.83;;;36.30;;
51296;SDS011;37380;45.186;9.792;2023-11-22T01:14:23;44.67;;;37.85;;
51296;SDS011;37380;45.186;9.792;2023-11-22T01:16:50;47.47;;;33.47;;
51296;SDS011;37380;45.186;9.792;2023-11-22T01:19:17;42.13;;;32.13;;
51296;SDS011;37380;45.186;9.792;2023-11-22T01:21:45;36.15;;;32.05;;
51296;SDS011;37380;45.186;9.792;2023-11-22T01:24:12;36.55;;;32.08;;
51296;SDS011;37380;45.186;9.792;2023-11-22T01:26:39;50.83;;;38.83;;
51296;SDS011;37380;45.186;9.792;2023-11-22T01:29:07;39.75;;;35.45;;
51296;SDS011;37380;45.186;9.792;2023-11-22T01:31:34;50.72;;;35.60;;
51296;SDS011;37380;45.186;9.792;2023-11-22T01:34:01;56.70;;;37.05;;
51296;SDS011;37380;45.186;9.792;2023-11-22T01:36:33;45.53;;;38.95;;
51296;SDS011;37380;45.186;9.792;2023-11-22T01:39:00;50.33;;;35.10;;
51296;SDS011;37380;45.186;9.792;2023-11-22T01:41:28;48.55;;;36.50;;
51296;SDS011;37380;45.186;9.792;2023-11-22T01:43:57;45.88;;;37.83;;
51296;SDS011;37380;45.186;9.792;2023-11-22T01:46:24;46.15;;;36.08;;
51296;SDS011;37380;45.186;9.792;2023-11-22T01:48:53;43.92;;;36.42;;
51296;SDS011;37380;45.186;9.792;2023-11-22T01:51:21;52.20;;;37.40;;
51296;SDS011;37380;45.186;9.792;2023-11-22T01:53:51;53.20;;;42.67;;
51296;SDS011;37380;45.186;9.792;2023-11-22T01:56:21;51.60;;;40.70;;
51296;SDS011;37380;45.186;9.792;2023-11-22T01:58:50;53.28;;;41.00;;
51296;SDS011;37380;45.186;9.792;2023-11-22T02:01:17;63.60;;;41.25;;
51296;SDS011;37380;45.186;9.792;2023-11-22T02:03:45;44.65;;;38.65;;
51296;SDS011;37380;45.186;9.792;2023-11-22T02:06:15;56.25;;;39.85;;
51296;SDS011;37380;45.186;9.792;2023-11-22T02:08:43;45.35;;;39.17;;
51296;SDS011;37380;45.186;9.792;2023-11-22T02:11:11;57.42;;;42.30;;
51296;SDS011;37380;45.186;9.792;2023-11-22T02:13:38;47.50;;;40.58;;
51296;SDS011;37380;45.186;9.792;2023-11-22T02:16:05;53.53;;;41.45;;
51296;SDS011;37380;45.186;9.792;2023-11-22T02:18:33;55.50;;;43.53;;
51296;SDS011;37380;45.186;9.792;2023-11-22T02:21:01;48.10;;;38.25;;
51296;SDS011;37380;45.186;9.792;2023-11-22T02:23:29;57.17;;;42.65;;
51296;SDS011;37380;45.186;9.792;2023-11-22T02:25:56;48.50;;;39.33;;
51296;SDS011;37380;45.186;9.792;2023-11-22T02:28:23;48.67;;;40.45;;
51296;SDS011;37380;45.186;9.792;2023-11-22T02:30:51;51.30;;;41.00;;
51296;SDS011;37380;45.186;9.792;2023-11-22T02:33:18;56.05;;;42.28;;
51296;SDS011;37380;45.186;9.792;2023-11-22T02:35:45;54.30;;;39.30;;
51296;SDS011;37380;45.186;9.792;2023-11-22T02:38:13;47.28;;;37.50;;
51296;SDS011;37380;45.186;9.792;2023-11-22T02:40:40;44.45;;;37.78;;
51296;SDS011;37380;45.186;9.792;2023-11-22T02:43:08;50.33;;;37.83;;
51296;SDS011;37380;45.186;9.792;2023-11-22T02:45:36;44.88;;;36.45;;
51296;SDS011;37380;45.186;9.792;2023-11-22T02:48:04;42.33;;;35.05;;
51296;SDS011;37380;45.186;9.792;2023-11-22T02:50:36;47.30;;;37.60;;
51296;SDS011;37380;45.186;9.792;2023-11-22T02:53:06;54.25;;;43.28;;
51296;SDS011;37380;45.186;9.792;2023-11-22T02:55:34;45.95;;;39.40;;
51296;SDS011;37380;45.186;9.792;2023-11-22T02:58:02;49.20;;;41.38;;
51296;SDS011;37380;45.186;9.792;2023-11-22T03:00:30;42.17;;;37.35;;
51296;SDS011;37380;45.186;9.792;2023-11-22T03:02:58;48.08;;;38.25;;
51296;SDS011;37380;45.186;9.792;2023-11-22T03:05:29;50.67;;;40.03;;
51296;SDS011;37380;45.186;9.792;2023-11-22T03:07:57;54.88;;;39.92;;
51296;SDS011;37380;45.186;9.792;2023-11-22T03:10:25;60.22;;;43.45;;
51296;SDS011;37380;45.186;9.792;2023-11-22T03:12:53;60.10;;;44.40;;
51296;SDS011;37380;45.186;9.792;2023-11-22T03:15:21;60.97;;;49.15;;
51296;SDS011;37380;45.186;9.792;2023-11-22T03:17:48;61.75;;;47.92;;
51296;SDS011;37380;45.186;9.792;2023-11-22T03:20:17;54.67;;;44.05;;
51296;SDS011;37380;45.186;9.792;2023-11-22T03:22:44;55.17;;;45.70;;
51296;SDS011;37380;45.186;9.792;2023-11-22T03:25:12;53.75;;;45.95;;
51296;SDS011;37380;45.186;9.792;2023-11-22T03:27:41;50.20;;;43.53;;
51296;SDS011;37380;45.186;9.792;2023-11-22T03:30:08;52.80;;;44.53;;
51296;SDS011;37380;45.186;9.792;2023-11-22T03:32:39;56.85;;;43.75;;
51296;SDS011;37380;45.186;9.792;2023-11-22T03:35:11;49.85;;;42.75;;
51296;SDS011;37380;45.186;9.792;2023-11-22T03:37:39;54.88;;;45.33;;
51296;SDS011;37380;45.186;9.792;2023-11-22T03:40:08;65.82;;;50.88;;
51296;SDS011;37380;45.186;9.792;2023-11-22T03:42:36;57.55;;;50.42;;
51296;SDS011;37380;45.186;9.792;2023-11-22T03:45:06;64.30;;;52.63;;
51296;SDS011;37380;45.186;9.792;2023-11-22T03:47:33;59.50;;;49.15;;
51296;SDS011;37380;45.186;9.792;2023-11-22T03:50:06;65.82;;;52.47;;
51296;SDS011;37380;45.186;9.792;2023-11-22T03:52:34;64.95;;;54.80;;
51296;SDS011;37380;45.186;9.792;2023-11-22T03:55:02;65.78;;;55.95;;
51296;SDS011;37380;45.186;9.792;2023-11-22T03:57:30;74.68;;;58.35;;
51296;SDS011;37380;45.186;9.792;2023-11-22T03:59:58;73.95;;;59.25;;
51296;SDS011;37380;45.186;9.792;2023-11-22T04:02:26;74.93;;;59.17;;
51296;SDS011;37380;45.186;9.792;2023-11-22T04:04:55;66.10;;;53.45;;
51296;SDS011;37380;45.186;9.792;2023-11-22T04:07:22;63.85;;;53.10;;
51296;SDS011;37380;45.186;9.792;2023-11-22T04:09:50;58.90;;;51.60;;
51296;SDS011;37380;45.186;9.792;2023-11-22T04:12:17;63.83;;;49.08;;
51296;SDS011;37380;45.186;9.792;2023-11-22T04:14:44;69.95;;;54.28;;
51296;SDS011;37380;45.186;9.792;2023-11-22T04:17:12;65.43;;;50.97;;
51296;SDS011;37380;45.186;9.792;2023-11-22T04:19:40;62.08;;;50.20;;
51296;SDS011;37380;45.186;9.792;2023-11-22T04:22:08;62.90;;;50.75;;
51296;SDS011;37380;45.186;9.792;2023-11-22T04:24:35;68.70;;;54.90;;
51296;SDS011;37380;45.186;9.792;2023-11-22T04:27:03;66.85;;;52.88;;
51296;SDS011;37380;45.186;9.792;2023-11-22T04:29:31;60.45;;;52.63;;
51296;SDS011;37380;45.186;9.792;2023-11-22T04:31:58;68.13;;;51.50;;
51296;SDS011;37380;45.186;9.792;2023-11-22T04:34:25;60.50;;;51.33;;
51296;SDS011;37380;45.186;9.792;2023-11-22T04:36:53;70.15;;;54.45;;
51296;SDS011;37380;45.186;9.792;2023-11-22T04:39:20;64.40;;;51.05;;
51296;SDS011;37380;45.186;9.792;2023-11-22T04:41:47;64.55;;;55.17;;
51296;SDS011;37380;45.186;9.792;2023-11-22T04:44:14;69.10;;;56.85;;
51296;SDS011;37380;45.186;9.792;2023-11-22T04:46:42;56.38;;;47.40;;
51296;SDS011;37380;45.186;9.792;2023-11-22T04:49:09;70.80;;;49.20;;
51296;SDS011;37380;45.186;9.792;2023-11-22T04:51:36;65.03;;;53.45;;
51296;SDS011;37380;45.186;9.792;2023-11-22T04:54:03;52.97;;;45.97;;
51296;SDS011;37380;45.186;9.792;2023-11-22T04:56:31;61.65;;;50.90;;
51296;SDS011;37380;45.186;9.792;2023-11-22T04:58:58;54.03;;;45.95;;
51296;SDS011;37380;45.186;9.792;2023-11-22T05:01:31;45.20;;;37.05;;
51296;SDS011;37380;45.186;9.792;2023-11-22T05:03:59;44.10;;;36.53;;
51296;SDS011;37380;45.186;9.792;2023-11-22T05:06:26;43.38;;;38.65;;
51296;SDS011;37380;45.186;9.792;2023-11-22T05:08:55;43.08;;;33.65;;
51296;SDS011;37380;45.186;9.792;2023-11-22T05:11:23;38.40;;;34.42;;
51296;SDS011;37380;45.186;9.792;2023-11-22T05:13:50;39.15;;;35.00;;
51296;SDS011;37380;45.186;9.792;2023-11-22T05:16:18;39.17;;;35.22;;
51296;SDS011;37380;45.186;9.792;2023-11-22T05:18:45;38.60;;;34.53;;
51296;SDS011;37380;45.186;9.792;2023-11-22T05:21:12;54.45;;;39.72;;
51296;SDS011;37380;45.186;9.792;2023-11-22T05:23:40;41.75;;;37.42;;
51296;SDS011;37380;45.186;9.792;2023-11-22T05:26:12;46.90;;;39.88;;
51296;SDS011;37380;45.186;9.792;2023-11-22T05:28:39;50.63;;;41.50;;
51296;SDS011;37380;45.186;9.792;2023-11-22T05:31:06;48.40;;;42.40;;
51296;SDS011;37380;45.186;9.792;2023-11-22T05:33:34;53.55;;;44.75;;
51296;SDS011;37380;45.186;9.792;2023-11-22T05:36:01;49.00;;;43.95;;
51296;SDS011;37380;45.186;9.792;2023-11-22T05:38:29;54.00;;;44.33;;
51296;SDS011;37380;45.186;9.792;2023-11-22T05:40:57;45.70;;;39.08;;
51296;SDS011;37380;45.186;9.792;2023-11-22T05:43:24;51.20;;;44.05;;
51296;SDS011;37380;45.186;9.792;2023-11-22T05:45:54;49.67;;;43.90;;
51296;SDS011;37380;45.186;9.792;2023-11-22T05:48:21;49.45;;;42.50;;
51296;SDS011;37380;45.186;9.792;2023-11-22T05:50:49;44.85;;;40.05;;
51296;SDS011;37380;45.186;9.792;2023-11-22T05:53:16;51.38;;;41.75;;
51296;SDS011;37380;45.186;9.792;2023-11-22T05:55:47;53.45;;;41.70;;
51296;SDS011;37380;45.186;9.792;2023-11-22T05:58:15;54.60;;;43.40;;
51296;SDS011;37380;45.186;9.792;2023-11-22T06:00:47;53.40;;;41.90;;
51296;SDS011;37380;45.186;9.792;2023-11-22T06:03:15;50.72;;;40.45;;
51296;SDS011;37380;45.186;9.792;2023-11-22T06:05:42;50.97;;;41.40;;
51296;SDS011;37380;45.186;9.792;2023-11-22T06:08:10;50.72;;;41.90;;
51296;SDS011;37380;45.186;9.792;2023-11-22T06:10:37;56.95;;;40.30;;
51296;SDS011;37380;45.186;9.792;2023-11-22T06:13:08;52.60;;;41.75;;
51296;SDS011;37380;45.186;9.792;2023-11-22T06:15:40;45.72;;;38.33;;
51296;SDS011;37380;45.186;9.792;2023-11-22T06:18:09;56.08;;;40.13;;
51296;SDS011;37380;45.186;9.792;2023-11-22T06:20:36;45.85;;;39.83;;
51296;SDS011;37380;45.186;9.792;2023-11-22T06:23:04;45.05;;;40.33;;
51296;SDS011;37380;45.186;9.792;2023-11-22T06:25:31;45.90;;;40.67;;
51296;SDS011;37380;45.186;9.792;2023-11-22T06:27:59;49.20;;;40.92;;
51296;SDS011;37380;45.186;9.792;2023-11-22T06:30:28;48.63;;;40.30;;
51296;SDS011;37380;45.186;9.792;2023-11-22T06:32:57;49.85;;;44.17;;
51296;SDS011;37380;45.186;9.792;2023-11-22T06:35:24;55.70;;;45.75;;
51296;SDS011;37380;45.186;9.792;2023-11-22T06:37:52;47.15;;;41.65;;
51296;SDS011;37380;45.186;9.792;2023-11-22T06:40:19;43.35;;;38.67;;
51296;SDS011;37380;45.186;9.792;2023-11-22T06:42:50;41.28;;;36.72;;
51296;SDS011;37380;45.186;9.792;2023-11-22T06:45:18;48.13;;;43.03;;
51296;SDS011;37380;45.186;9.792;2023-11-22T06:47:46;43.88;;;39.17;;
51296;SDS011;37380;45.186;9.792;2023-11-22T06:50:13;45.13;;;40.15;;
51296;SDS011;37380;45.186;9.792;2023-11-22T06:52:41;46.67;;;39.70;;
51296;SDS011;37380;45.186;9.792;2023-11-22T06:55:09;52.13;;;41.05;;
51296;SDS011;37380;45.186;9.792;2023-11-22T06:57:37;44.30;;;39.28;;
51296;SDS011;37380;45.186;9.792;2023-11-22T07:00:05;46.10;;;40.92;;
51296;SDS011;37380;45.186;9.792;2023-11-22T07:02:33;46.17;;;37.80;;
51296;SDS011;37380;45.186;9.792;2023-11-22T07:05:02;46.03;;;37.20;;
51296;SDS011;37380;45.186;9.792;2023-11-22T07:07:33;44.45;;;38.58;;
51296;SDS011;37380;45.186;9.792;2023-11-22T07:10:00;44.95;;;40.08;;
51296;SDS011;37380;45.186;9.792;2023-11-22T07:12:28;48.70;;;41.38;;
51296;SDS011;37380;45.186;9.792;2023-11-22T07:14:56;51.72;;;45.50;;
51296;SDS011;37380;45.186;9.792;2023-11-22T07:17:23;48.28;;;41.80;;
51296;SDS011;37380;45.186;9.792;2023-11-22T07:19:55;57.53;;;47.00;;
51296;SDS011;37380;45.186;9.792;2023-11-22T07:22:22;60.17;;;50.03;;
51296;SDS011;37380;45.186;9.792;2023-11-22T07:24:51;74.50;;;62.67;;
51296;SDS011;37380;45.186;9.792;2023-11-22T07:27:18;60.88;;;52.00;;
51296;SDS011;37380;45.186;9.792;2023-11-22T07:29:46;69.72;;;50.42;;
51296;SDS011;37380;45.186;9.792;2023-11-22T07:32:13;62.60;;;49.65;;
51296;SDS011;37380;45.186;9.792;2023-11-22T07:34:42;49.20;;;43.88;;
51296;SDS011;37380;45.186;9.792;2023-11-22T07:37:09;52.72;;;42.70;;
51296;SDS011;37380;45.186;9.792;2023-11-22T07:39:37;62.15;;;47.03;;
51296;SDS011;37380;45.186;9.792;2023-11-22T07:42:05;59.65;;;44.70;;
51296;SDS011;37380;45.186;9.792;2023-11-22T07:44:35;44.70;;;36.92;;
51296;SDS011;37380;45.186;9.792;2023-11-22T07:47:06;62.13;;;37.42;;
51296;SDS011;37380;45.186;9.792;2023-11-22T07:49:40;49.95;;;35.20;;
51296;SDS011;37380;45.186;9.792;2023-11-22T07:52:09;40.20;;;35.38;;
51296;SDS011;37380;45.186;9.792;2023-11-22T07:54:41;39.22;;;35.17;;
51296;SDS011;37380;45.186;9.792;2023-11-22T07:57:08;43.65;;;36.00;;
51296;SDS011;37380;45.186;9.792;2023-11-22T07:59:36;46.60;;;35.10;;
51296;SDS011;37380;45.186;9.792;2023-11-22T08:02:04;40.83;;;36.53;;
51296;SDS011;37380;45.186;9.792;2023-11-22T08:04:35;37.22;;;32.95;;
51296;SDS011;37380;45.186;9.792;2023-11-22T08:07:02;38.00;;;33.13;;
51296;SDS011;37380;45.186;9.792;2023-11-22T08:09:31;35.75;;;31.65;;
51296;SDS011;37380;45.186;9.792;2023-11-22T08:11:59;34.20;;;30.52;;
51296;SDS011;37380;45.186;9.792;2023-11-22T08:14:32;31.52;;;26.60;;
51296;SDS011;37380;45.186;9.792;2023-11-22T08:17:00;34.40;;;27.48;;
51296;SDS011;37380;45.186;9.792;2023-11-22T08:19:29;32.20;;;26.02;;
51296;SDS011;37380;45.186;9.792;2023-11-22T08:21:57;36.40;;;26.83;;
51296;SDS011;37380;45.186;9.792;2023-11-22T08:24:25;29.35;;;23.58;;
51296;SDS011;37380;45.186;9.792;2023-11-22T08:26:55;31.77;;;21.48;;
51296;SDS011;37380;45.186;9.792;2023-11-22T08:29:28;27.67;;;23.67;;
51296;SDS011;37380;45.186;9.792;2023-11-22T08:31:59;38.22;;;25.50;;
51296;SDS011;37380;45.186;9.792;2023-11-22T08:34:28;26.30;;;23.50;;
51296;SDS011;37380;45.186;9.792;2023-11-22T08:36:58;28.15;;;23.05;;
51296;SDS011;37380;45.186;9.792;2023-11-22T08:39:32;30.60;;;24.67;;
51296;SDS011;37380;45.186;9.792;2023-11-22T08:42:02;40.20;;;27.08;;
51296;SDS011;37380;45.186;9.792;2023-11-22T08:44:37;29.80;;;26.13;;
51296;SDS011;37380;45.186;9.792;2023-11-22T08:47:08;32.78;;;25.45;;
51296;SDS011;37380;45.186;9.792;2023-11-22T08:49:41;34.78;;;26.15;;
51296;SDS011;37380;45.186;9.792;2023-11-22T08:52:24;30.73;;;25.98;;
51296;SDS011;37380;45.186;9.792;2023-11-22T08:55:07;39.03;;;26.63;;
51296;SDS011;37380;45.186;9.792;2023-11-22T08:57:44;33.38;;;25.50;;
51296;SDS011;37380;45.186;9.792;2023-11-22T09:00:20;47.47;;;26.98;;
51296;SDS011;37380;45.186;9.792;2023-11-22T09:02:56;29.05;;;25.10;;
51296;SDS011;37380;45.186;9.792;2023-11-22T09:05:28;38.30;;;25.85;;
51296;SDS011;37380;45.186;9.792;2023-11-22T09:08:08;29.27;;;22.60;;
51296;SDS011;37380;45.186;9.792;2023-11-22T09:10:58;32.65;;;24.33;;
51296;SDS011;37380;45.186;9.792;2023-11-22T09:13:46;34.28;;;23.67;;
51296;SDS011;37380;45.186;9.792;2023-11-22T09:17:09;34.42;;;22.42;;
51296;SDS011;37380;45.186;9.792;2023-11-22T09:20:37;26.83;;;23.63;;
51296;SDS011;37380;45.186;9.792;2023-11-22T09:24:03;29.25;;;24.48;;
51296;SDS011;37380;45.186;9.792;2023-11-22T09:27:46;34.10;;;26.08;;
51296;SDS011;37380;45.186;9.792;2023-11-22T09:31:36;32.28;;;23.52;;
51296;SDS011;37380;45.186;9.792;2023-11-22T09:34:48;33.92;;;23.02;;
51296;SDS011;37380;45.186;9.792;2023-11-22T09:37:55;31.88;;;23.08;;
51296;SDS011;37380;45.186;9.792;2023-11-22T09:41:51;33.97;;;23.05;;
51296;SDS011;37380;45.186;9.792;2023-11-22T09:44:48;29.38;;;23.05;;
51296;SDS011;37380;45.186;9.792;2023-11-22T09:47:30;37.83;;;22.33;;
51296;SDS011;37380;45.186;9.792;2023-11-22T09:51:47;28.45;;;23.13;;
51296;SDS011;37380;45.186;9.792;2023-11-22T09:54:52;24.95;;;22.38;;
51296;SDS011;37380;45.186;9.792;2023-11-22T09:57:40;27.67;;;22.33;;
51296;SDS011;37380;45.186;9.792;2023-11-22T10:00:40;34.15;;;21.73;;
51296;SDS011;37380;45.186;9.792;2023-11-22T10:03:22;32.15;;;22.92;;
51296;SDS011;37380;45.186;9.792;2023-11-22T10:06:35;31.63;;;21.05;;
51296;SDS011;37380;45.186;9.792;2023-11-22T10:09:36;31.10;;;22.63;;
51296;SDS011;37380;45.186;9.792;2023-11-22T10:13:06;23.73;;;19.50;;
51296;SDS011;37380;45.186;9.792;2023-11-22T10:16:26;25.42;;;18.30;;
51296;SDS011;37380;45.186;9.792;2023-11-22T10:19:47;24.88;;;19.15;;
51296;SDS011;37380;45.186;9.792;2023-11-22T10:39:07;26.80;;;16.40;;
51296;SDS011;37380;45.186;9.792;2023-11-22T10:53:35;24.75;;;16.63;;
51296;SDS011;37380;45.186;9.792;2023-11-22T11:04:09;24.45;;;16.88;;
51296;SDS011;37380;45.186;9.792;2023-11-22T11:14:19;30.95;;;16.05;;
51296;SDS011;37380;45.186;9.792;2023-11-22T11:19:01;17.50;;;12.38;;
51296;SDS011;37380;45.186;9.792;2023-11-22T11:22:17;18.95;;;12.73;;
51296;SDS011;37380;45.186;9.792;2023-11-22T11:26:31;33.25;;;14.80;;
51296;SDS011;37380;45.186;9.792;2023-11-22T11:35:52;12.35;;;9.60;;
51296;SDS011;37380;45.186;9.792;2023-11-22T11:45:55;20.13;;;12.60;;
51296;SDS011;37380;45.186;9.792;2023-11-22T12:10:30;7.75;;;6.15;;
51296;SDS011;37380;45.186;9.792;2023-11-22T12:30:32;10.80;;;5.95;;
51296;SDS011;37380;45.186;9.792;2023-11-22T12:35:30;6.38;;;5.60;;
51296;SDS011;37380;45.186;9.792;2023-11-22T13:01:21;11.60;;;5.38;;
51296;SDS011;37380;45.186;9.792;2023-11-22T13:05:59;6.97;;;5.32;;
51296;SDS011;37380;45.186;9.792;2023-11-22T13:16:32;4.95;;;3.90;;
51296;SDS011;37380;45.186;9.792;2023-11-22T13:21:29;9.55;;;6.05;;
51296;SDS011;37380;45.186;9.792;2023-11-22T13:36:56;8.60;;;5.68;;
51296;SDS011;37380;45.186;9.792;2023-11-22T13:46:33;11.88;;;6.68;;
51296;SDS011;37380;45.186;9.792;2023-11-22T14:01:24;9.18;;;6.47;;
51296;SDS011;37380;45.186;9.792;2023-11-22T14:06:07;8.55;;;6.80;;
51296;SDS011;37380;45.186;9.792;2023-11-22T14:09:58;9.30;;;6.22;;
51296;SDS011;37380;45.186;9.792;2023-11-22T14:13:11;8.48;;;5.43;;
51296;SDS011;37380;45.186;9.792;2023-11-22T14:15:55;15.35;;;4.93;;
51296;SDS011;37380;45.186;9.792;2023-11-22T14:18:33;7.63;;;5.30;;
51296;SDS011;37380;45.186;9.792;2023-11-22T14:21:08;11.82;;;6.18;;
51296;SDS011;37380;45.186;9.792;2023-11-22T14:23:51;10.75;;;7.47;;
51296;SDS011;37380;45.186;9.792;2023-11-22T14:26:22;10.65;;;6.65;;
51296;SDS011;37380;45.186;9.792;2023-11-22T14:28:51;13.05;;;6.85;;
51296;SDS011;37380;45.186;9.792;2023-11-22T14:31:25;9.55;;;6.15;;
51296;SDS011;37380;45.186;9.792;2023-11-22T14:33:54;6.25;;;5.03;;
51296;SDS011;37380;45.186;9.792;2023-11-22T14:36:33;8.57;;;5.53;;
51296;SDS011;37380;45.186;9.792;2023-11-22T14:39:06;9.05;;;5.57;;
51296;SDS011;37380;45.186;9.792;2023-11-22T14:41:44;14.45;;;4.57;;
51296;SDS011;37380;45.186;9.792;2023-11-22T14:44:13;6.68;;;5.03;;
51296;SDS011;37380;45.186;9.792;2023-11-22T14:46:56;6.97;;;4.10;;
51296;SDS011;37380;45.186;9.792;2023-11-22T14:49:55;9.32;;;5.05;;
51296;SDS011;37380;45.186;9.792;2023-11-22T14:52:27;5.57;;;4.63;;
51296;SDS011;37380;45.186;9.792;2023-11-22T14:54:58;6.13;;;5.30;;
51296;SDS011;37380;45.186;9.792;2023-11-22T14:57:33;11.40;;;5.47;;
51296;SDS011;37380;45.186;9.792;2023-11-22T15:03:36;10.70;;;6.00;;
51296;SDS011;37380;45.186;9.792;2023-11-22T15:06:22;7.15;;;5.18;;
51296;SDS011;37380;45.186;9.792;2023-11-22T15:08:55;20.13;;;6.35;;
51296;SDS011;37380;45.186;9.792;2023-11-22T15:12:13;19.00;;;5.88;;
51296;SDS011;37380;45.186;9.792;2023-11-22T15:14:45;7.88;;;5.35;;
51296;SDS011;37380;45.186;9.792;2023-11-22T15:17:22;10.90;;;7.68;;
51296;SDS011;37380;45.186;9.792;2023-11-22T15:19:50;9.38;;;7.43;;
51296;SDS011;37380;45.186;9.792;2023-11-22T15:22:17;6.25;;;5.65;;
51296;SDS011;37380;45.186;9.792;2023-11-22T15:24:45;20.13;;;7.15;;
51296;SDS011;37380;45.186;9.792;2023-11-22T15:27:12;7.53;;;6.63;;
51296;SDS011;37380;45.186;9.792;2023-11-22T15:29:39;9.73;;;6.65;;
51296;SDS011;37380;45.186;9.792;2023-11-22T15:32:07;10.77;;;7.13;;
51296;SDS011;37380;45.186;9.792;2023-11-22T15:34:35;12.35;;;5.53;;
51296;SDS011;37380;45.186;9.792;2023-11-22T15:37:04;10.65;;;5.80;;
51296;SDS011;37380;45.186;9.792;2023-11-22T15:39:31;11.63;;;5.72;;
51296;SDS011;37380;45.186;9.792;2023-11-22T15:41:59;16.33;;;5.75;;
51296;SDS011;37380;45.186;9.792;2023-11-22T15:44:26;9.15;;;6.53;;
51296;SDS011;37380;45.186;9.792;2023-11-22T15:46:53;15.23;;;6.57;;
51296;SDS011;37380;45.186;9.792;2023-11-22T15:49:20;16.35;;;7.47;;
51296;SDS011;37380;45.186;9.792;2023-11-22T15:51:48;17.10;;;7.68;;
51296;SDS011;37380;45.186;9.792;2023-11-22T15:54:15;10.75;;;8.45;;
51296;SDS011;37380;45.186;9.792;2023-11-22T15:56:44;13.52;;;6.88;;
51296;SDS011;37380;45.186;9.792;2023-11-22T15:59:13;10.10;;;6.85;;
51296;SDS011;37380;45.186;9.792;2023-11-22T16:01:40;21.33;;;10.20;;
51296;SDS011;37380;45.186;9.792;2023-11-22T16:04:09;17.67;;;6.95;;
51296;SDS011;37380;45.186;9.792;2023-11-22T16:06:38;13.38;;;7.60;;
51296;SDS011;37380;45.186;9.792;2023-11-22T16:09:06;12.55;;;7.70;;
51296;SDS011;37380;45.186;9.792;2023-11-22T16:11:34;16.25;;;10.52;;
51296;SDS011;37380;45.186;9.792;2023-11-22T16:14:03;11.13;;;8.60;;
51296;SDS011;37380;45.186;9.792;2023-11-22T16:16:31;11.43;;;7.88;;
51296;SDS011;37380;45.186;9.792;2023-11-22T16:18:58;8.95;;;7.28;;
51296;SDS011;37380;45.186;9.792;2023-11-22T16:21:26;21.35;;;10.73;;
51296;SDS011;37380;45.186;9.792;2023-11-22T16:23:53;15.57;;;9.38;;
51296;SDS011;37380;45.186;9.792;2023-11-22T16:26:20;19.67;;;9.55;;
51296;SDS011;37380;45.186;9.792;2023-11-22T16:28:49;12.80;;;8.57;;
51296;SDS011;37380;45.186;9.792;2023-11-22T16:31:17;16.05;;;10.98;;
51296;SDS011;37380;45.186;9.792;2023-11-22T16:33:48;20.98;;;10.55;;
51296;SDS011;37380;45.186;9.792;2023-11-22T16:36:15;29.25;;;10.65;;
51296;SDS011;37380;45.186;9.792;2023-11-22T16:38:42;13.55;;;9.73;;
51296;SDS011;37380;45.186;9.792;2023-11-22T16:41:12;17.80;;;9.98;;
51296;SDS011;37380;45.186;9.792;2023-11-22T16:43:43;19.73;;;12.85;;
51296;SDS011;37380;45.186;9.792;2023-11-22T16:46:15;18.10;;;11.07;;
51296;SDS011;37380;45.186;9.792;2023-11-22T16:48:43;15.05;;;9.75;;
51296;SDS011;37380;45.186;9.792;2023-11-22T16:51:15;13.02;;;9.27;;
51296;SDS011;37380;45.186;9.792;2023-11-22T16:53:45;22.73;;;11.73;;
51296;SDS011;37380;45.186;9.792;2023-11-22T16:56:12;15.82;;;11.25;;
51296;SDS011;37380;45.186;9.792;2023-11-22T16:58:39;36.75;;;21.77;;
51296;SDS011;37380;45.186;9.792;2023-11-22T17:01:07;39.47;;;24.90;;
51296;SDS011;37380;45.186;9.792;2023-11-22T17:03:39;22.67;;;12.75;;
51296;SDS011;37380;45.186;9.792;2023-11-22T17:06:07;21.65;;;13.52;;
51296;SDS011;37380;45.186;9.792;2023-11-22T17:08:34;17.73;;;12.88;;
51296;SDS011;37380;45.186;9.792;2023-11-22T17:11:04;22.17;;;12.98;;
51296;SDS011;37380;45.186;9.792;2023-11-22T17:13:33;26.38;;;12.68;;
51296;SDS011;37380;45.186;9.792;2023-11-22T17:16:01;18.42;;;14.05;;
51296;SDS011;37380;45.186;9.792;2023-11-22T17:18:31;24.77;;;16.13;;
51296;SDS011;37380;45.186;9.792;2023-11-22T17:21:09;38.17;;;18.65;;
51296;SDS011;37380;45.186;9.792;2023-11-22T17:23:43;35.83;;;18.17;;
51296;SDS011;37380;45.186;9.792;2023-11-22T17:26:13;23.98;;;15.05;;
51296;SDS011;37380;45.186;9.792;2023-11-22T17:28:44;44.83;;;22.48;;
51296;SDS011;37380;45.186;9.792;2023-11-22T17:31:11;69.88;;;31.48;;
51296;SDS011;37380;45.186;9.792;2023-11-22T17:33:38;39.67;;;21.42;;
51296;SDS011;37380;45.186;9.792;2023-11-22T17:36:07;48.15;;;25.83;;
51296;SDS011;37380;45.186;9.792;2023-11-22T17:38:35;48.63;;;26.17;;
51296;SDS011;37380;45.186;9.792;2023-11-22T17:41:02;42.30;;;20.17;;
51296;SDS011;37380;45.186;9.792;2023-11-22T17:43:29;44.50;;;22.23;;
51296;SDS011;37380;45.186;9.792;2023-11-22T17:45:58;32.33;;;18.20;;
51296;SDS011;37380;45.186;9.792;2023-11-22T17:48:32;39.33;;;21.10;;
51296;SDS011;37380;45.186;9.792;2023-11-22T17:51:05;47.58;;;25.98;;
51296;SDS011;37380;45.186;9.792;2023-11-22T17:53:34;52.70;;;26.15;;
51296;SDS011;37380;45.186;9.792;2023-11-22T17:56:02;50.42;;;28.10;;